sensor_id;sensor_type;location;lat;lon;timestamp;pressure;altitude;pressure_sealevel;temperature;humidity
66880;BME280;53789;51.392;10.234;2023-07-13T00:00:12;98124.03;;;15.57;73.54
66880;BME280;53789;51.392;10.234;2023-07-13T00:00:33;98123.25;;;15.57;72.81
66880;BME280;53789;51.392;10.234;2023-07-13T00:00:53;98120.81;;;15.55;73.55
66880;BME280;53789;51.392;10.234;2023-07-13T00:01:14;98119.19;;;15.54;73.33
66880;BME280;53789;51.392;10.234;2023-07-13T00:01:35;98121.97;;;15.54;73.39
66880;BME280;53789;51.392;10.234;2023-07-13T00:01:55;98121.47;;;15.52;73.88
66880;BME280;53789;51.392;10.234;2023-07-13T00:02:16;98125.75;;;15.49;74.21
66880;BME280;53789;51.392;10.234;2023-07-13T00:02:36;98126.56;;;15.50;73.61
66880;BME280;53789;51.392;10.234;2023-07-13T00:02:57;98124.47;;;15.47;73.52
66880;BME280;53789;51.392;10.234;2023-07-13T00:03:17;98127.59;;;15.45;74.17
66880;BME280;53789;51.392;10.234;2023-07-13T00:03:37;98126.78;;;15.45;74.36
66880;BME280;53789;51.392;10.234;2023-07-13T00:04:00;98125.16;;;15.44;74.25
66880;BME280;53789;51.392;10.234;2023-07-13T00:04:22;98126.28;;;15.43;74.26
66880;BME280;53789;51.392;10.234;2023-07-13T00:04:43;98126.28;;;15.43;74.46
66880;BME280;53789;51.392;10.234;2023-07-13T00:05:04;98126.28;;;15.43;74.72
66880;BME280;53789;51.392;10.234;2023-07-13T00:05:24;98130.25;;;15.42;74.77
66880;BME280;53789;51.392;10.234;2023-07-13T00:05:44;98123.06;;;15.41;74.35
66880;BME280;53789;51.392;10.234;2023-07-13T00:06:05;98132.53;;;15.40;74.97
66880;BME280;53789;51.392;10.234;2023-07-13T00:06:25;98135.28;;;15.40;74.47
66880;BME280;53789;51.392;10.234;2023-07-13T00:06:46;98133.66;;;15.39;74.55
66880;BME280;53789;51.392;10.234;2023-07-13T00:07:08;98124.91;;;15.37;74.41
66880;BME280;53789;51.392;10.234;2023-07-13T00:07:28;98126.03;;;15.36;74.40
66880;BME280;53789;51.392;10.234;2023-07-13T00:07:50;98129.97;;;15.35;74.22
66880;BME280;53789;51.392;10.234;2023-07-13T00:08:11;98123.94;;;15.32;74.04
66880;BME280;53789;51.392;10.234;2023-07-13T00:08:31;98126.72;;;15.32;75.07
66880;BME280;53789;51.392;10.234;2023-07-13T00:08:52;98131.81;;;15.30;75.04
66880;BME280;53789;51.392;10.234;2023-07-13T00:09:17;98121.88;;;15.29;74.69
66880;BME280;53789;51.392;10.234;2023-07-13T00:09:37;98129.72;;;15.27;75.07
66880;BME280;53789;51.392;10.234;2023-07-13T00:09:57;98126.13;;;15.27;75.09
66880;BME280;53789;51.392;10.234;2023-07-13T00:10:18;98128.88;;;15.27;74.72
66880;BME280;53789;51.392;10.234;2023-07-13T00:10:40;98127.63;;;15.24;74.67
66880;BME280;53789;51.392;10.234;2023-07-13T00:11:03;98131.88;;;15.22;75.08
66880;BME280;53789;51.392;10.234;2023-07-13T00:11:24;98137.75;;;15.20;75.47
66880;BME280;53789;51.392;10.234;2023-07-13T00:11:45;98132.22;;;15.20;75.41
66880;BME280;53789;51.392;10.234;2023-07-13T00:12:25;98130.13;;;15.17;75.19
66880;BME280;53789;51.392;10.234;2023-07-13T00:12:46;98140.72;;;15.15;75.39
66880;BME280;53789;51.392;10.234;2023-07-13T00:13:06;98133.59;;;15.14;74.86
66880;BME280;53789;51.392;10.234;2023-07-13T00:13:27;98135.53;;;15.13;75.43
66880;BME280;53789;51.392;10.234;2023-07-13T00:13:47;98142.25;;;15.12;75.62
66880;BME280;53789;51.392;10.234;2023-07-13T00:14:08;98136.69;;;15.12;75.66
66880;BME280;53789;51.392;10.234;2023-07-13T00:14:29;98140.28;;;15.13;76.29
66880;BME280;53789;51.392;10.234;2023-07-13T00:14:49;98137.50;;;15.13;75.92
66880;BME280;53789;51.392;10.234;2023-07-13T00:15:15;98136.34;;;15.14;76.55
66880;BME280;53789;51.392;10.234;2023-07-13T00:15:36;98137.16;;;15.14;76.03
66880;BME280;53789;51.392;10.234;2023-07-13T00:15:58;98140.28;;;15.13;76.39
66880;BME280;53789;51.392;10.234;2023-07-13T00:16:19;98143.84;;;15.13;76.45
66880;BME280;53789;51.392;10.234;2023-07-13T00:16:40;98141.91;;;15.14;75.73
66880;BME280;53789;51.392;10.234;2023-07-13T00:17:00;98131.63;;;15.14;75.84
66880;BME280;53789;51.392;10.234;2023-07-13T00:17:20;98136.81;;;15.16;76.25
66880;BME280;53789;51.392;10.234;2023-07-13T00:17:41;98137.97;;;15.15;75.41
66880;BME280;53789;51.392;10.234;2023-07-13T00:18:02;98144.34;;;15.15;76.30
66880;BME280;53789;51.392;10.234;2023-07-13T00:18:22;98136.03;;;15.15;76.11
66880;BME280;53789;51.392;10.234;2023-07-13T00:18:42;98140.38;;;15.16;75.93
66880;BME280;53789;51.392;10.234;2023-07-13T00:19:04;98140.38;;;15.16;76.50
66880;BME280;53789;51.392;10.234;2023-07-13T00:19:24;98145.13;;;15.16;76.62
66880;BME280;53789;51.392;10.234;2023-07-13T00:19:45;98146.28;;;15.15;75.52
66880;BME280;53789;51.392;10.234;2023-07-13T00:20:06;98139.94;;;15.14;76.06
66880;BME280;53789;51.392;10.234;2023-07-13T00:20:26;98143.03;;;15.13;75.54
66880;BME280;53789;51.392;10.234;2023-07-13T00:20:47;98138.97;;;15.10;75.41
66880;BME280;53789;51.392;10.234;2023-07-13T00:21:08;98147.28;;;15.10;75.98
66880;BME280;53789;51.392;10.234;2023-07-13T00:21:28;98142.91;;;15.09;75.59
66880;BME280;53789;51.392;10.234;2023-07-13T00:21:49;98140.16;;;15.09;75.44
66880;BME280;53789;51.392;10.234;2023-07-13T00:22:09;98140.16;;;15.09;75.95
66880;BME280;53789;51.392;10.234;2023-07-13T00:22:30;98140.50;;;15.08;75.81
66880;BME280;53789;51.392;10.234;2023-07-13T00:22:51;98144.06;;;15.08;76.11
66880;BME280;53789;51.392;10.234;2023-07-13T00:23:11;98142.78;;;15.06;76.40
66880;BME280;53789;51.392;10.234;2023-07-13T00:23:36;98140.00;;;15.06;76.39
66880;BME280;53789;51.392;10.234;2023-07-13T00:23:57;98135.59;;;15.05;75.91
66880;BME280;53789;51.392;10.234;2023-07-13T00:24:18;98141.13;;;15.05;76.41
66880;BME280;53789;51.392;10.234;2023-07-13T00:24:38;98138.72;;;15.03;76.01
66880;BME280;53789;51.392;10.234;2023-07-13T00:24:59;98136.78;;;15.04;75.91
66880;BME280;53789;51.392;10.234;2023-07-13T00:25:20;98143.44;;;15.03;76.30
66880;BME280;53789;51.392;10.234;2023-07-13T00:25:40;98141.81;;;15.02;76.11
66880;BME280;53789;51.392;10.234;2023-07-13T00:26:02;98133.50;;;15.02;76.53
66880;BME280;53789;51.392;10.234;2023-07-13T00:26:23;98133.06;;;15.00;76.05
66880;BME280;53789;51.392;10.234;2023-07-13T00:26:44;98139.38;;;15.00;76.47
66880;BME280;53789;51.392;10.234;2023-07-13T00:27:04;98135.81;;;15.00;77.03
66880;BME280;53789;51.392;10.234;2023-07-13T00:27:24;98134.69;;;15.01;76.77
66880;BME280;53789;51.392;10.234;2023-07-13T00:27:47;98141.81;;;15.02;77.20
66880;BME280;53789;51.392;10.234;2023-07-13T00:28:08;98129.16;;;15.01;77.03
66880;BME280;53789;51.392;10.234;2023-07-13T00:28:28;98130.75;;;15.02;77.24
66880;BME280;53789;51.392;10.234;2023-07-13T00:28:49;98137.91;;;15.03;76.50
66880;BME280;53789;51.392;10.234;2023-07-13T00:29:09;98137.13;;;15.02;76.44
66880;BME280;53789;51.392;10.234;2023-07-13T00:29:29;98137.91;;;15.03;76.18
66880;BME280;53789;51.392;10.234;2023-07-13T00:29:50;98126.03;;;15.02;76.15
66880;BME280;53789;51.392;10.234;2023-07-13T00:30:11;98126.84;;;15.03;76.98
66880;BME280;53789;51.392;10.234;2023-07-13T00:30:31;98130.41;;;15.03;76.89
66880;BME280;53789;51.392;10.234;2023-07-13T00:30:52;98125.69;;;15.04;76.50
66880;BME280;53789;51.392;10.234;2023-07-13T00:31:13;98130.06;;;15.05;76.29
66880;BME280;53789;51.392;10.234;2023-07-13T00:31:34;98128.91;;;15.06;76.30
66880;BME280;53789;51.392;10.234;2023-07-13T00:31:54;98126.16;;;15.06;76.67
66880;BME280;53789;51.392;10.234;2023-07-13T00:32:15;98124.22;;;15.06;76.64
66880;BME280;53789;51.392;10.234;2023-07-13T00:32:35;98120.28;;;15.07;75.97
66880;BME280;53789;51.392;10.234;2023-07-13T00:32:55;98121.09;;;15.08;75.85
66880;BME280;53789;51.392;10.234;2023-07-13T00:33:16;98116.38;;;15.08;75.97
66880;BME280;53789;51.392;10.234;2023-07-13T00:33:36;98121.91;;;15.08;75.90
66880;BME280;53789;51.392;10.234;2023-07-13T00:33:56;98120.75;;;15.09;75.83
66880;BME280;53789;51.392;10.234;2023-07-13T00:34:17;98123.53;;;15.09;76.02
66880;BME280;53789;51.392;10.234;2023-07-13T00:34:38;98123.19;;;15.11;76.22
66880;BME280;53789;51.392;10.234;2023-07-13T00:34:58;98124.78;;;15.12;76.17
66880;BME280;53789;51.392;10.234;2023-07-13T00:35:19;98122.03;;;15.12;76.21
66880;BME280;53789;51.392;10.234;2023-07-13T00:35:39;98121.69;;;15.13;75.98
66880;BME280;53789;51.392;10.234;2023-07-13T00:35:59;98130.34;;;15.12;75.72
66880;BME280;53789;51.392;10.234;2023-07-13T00:36:19;98125.97;;;15.11;75.55
66880;BME280;53789;51.392;10.234;2023-07-13T00:36:40;98123.19;;;15.11;75.65
66880;BME280;53789;51.392;10.234;2023-07-13T00:37:00;98120.75;;;15.09;75.43
66880;BME280;53789;51.392;10.234;2023-07-13T00:37:21;98132.66;;;15.10;75.38
66880;BME280;53789;51.392;10.234;2023-07-13T00:37:41;98127.09;;;15.10;75.82
66880;BME280;53789;51.392;10.234;2023-07-13T00:38:02;98127.91;;;15.10;75.57
66880;BME280;53789;51.392;10.234;2023-07-13T00:38:23;98121.56;;;15.10;75.55
66880;BME280;53789;51.392;10.234;2023-07-13T00:38:44;98122.69;;;15.09;75.73
66880;BME280;53789;51.392;10.234;2023-07-13T00:39:04;98126.31;;;15.09;75.20
66880;BME280;53789;51.392;10.234;2023-07-13T00:39:25;98124.66;;;15.08;75.76
66880;BME280;53789;51.392;10.234;2023-07-13T00:39:45;98131.34;;;15.07;75.70
66880;BME280;53789;51.392;10.234;2023-07-13T00:40:06;98134.13;;;15.07;75.79
66880;BME280;53789;51.392;10.234;2023-07-13T00:40:27;98132.19;;;15.08;75.31
66880;BME280;53789;51.392;10.234;2023-07-13T00:40:47;98129.41;;;15.08;75.72
66880;BME280;53789;51.392;10.234;2023-07-13T00:41:08;98124.53;;;15.05;76.17
66880;BME280;53789;51.392;10.234;2023-07-13T00:41:29;98132.84;;;15.05;75.30
66880;BME280;53789;51.392;10.234;2023-07-13T00:41:49;98133.16;;;15.03;76.18
66880;BME280;53789;51.392;10.234;2023-07-13T00:42:10;98133.50;;;15.02;75.75
66880;BME280;53789;51.392;10.234;2023-07-13T00:42:31;98137.13;;;15.02;75.40
66880;BME280;53789;51.392;10.234;2023-07-13T00:42:53;98133.84;;;15.00;75.29
66880;BME280;53789;51.392;10.234;2023-07-13T00:43:17;98134.19;;;14.98;75.46
66880;BME280;53789;51.392;10.234;2023-07-13T00:43:37;98133.72;;;14.96;75.69
66880;BME280;53789;51.392;10.234;2023-07-13T00:43:58;98125.75;;;14.95;75.47
66880;BME280;53789;51.392;10.234;2023-07-13T00:44:19;98136.84;;;14.95;75.72
66880;BME280;53789;51.392;10.234;2023-07-13T00:44:40;98132.44;;;14.94;76.09
66880;BME280;53789;51.392;10.234;2023-07-13T00:45:07;98137.19;;;14.93;75.67
66880;BME280;53789;51.392;10.234;2023-07-13T00:46:16;98131.50;;;14.90;76.77
66880;BME280;53789;51.392;10.234;2023-07-13T00:46:37;98130.69;;;14.89;76.88
66880;BME280;53789;51.392;10.234;2023-07-13T00:46:57;98137.84;;;14.90;76.67
66880;BME280;53789;51.392;10.234;2023-07-13T00:47:17;98128.72;;;14.90;76.54
66880;BME280;53789;51.392;10.234;2023-07-13T00:47:38;98137.03;;;14.90;76.05
66880;BME280;53789;51.392;10.234;2023-07-13T00:47:59;98139.00;;;14.89;76.75
66880;BME280;53789;51.392;10.234;2023-07-13T00:48:27;98142.91;;;14.88;76.01
66880;BME280;53789;51.392;10.234;2023-07-13T00:48:50;98135.75;;;14.87;76.25
66880;BME280;53789;51.392;10.234;2023-07-13T00:49:15;98145.66;;;14.88;76.15
66880;BME280;53789;51.392;10.234;2023-07-13T00:49:36;98143.72;;;14.89;76.11
66880;BME280;53789;51.392;10.234;2023-07-13T00:49:57;98142.56;;;14.90;76.13
66880;BME280;53789;51.392;10.234;2023-07-13T00:50:21;98141.75;;;14.89;76.09
66880;BME280;53789;51.392;10.234;2023-07-13T00:50:45;98141.75;;;14.89;76.34
66880;BME280;53789;51.392;10.234;2023-07-13T00:51:06;98134.59;;;14.88;76.00
66880;BME280;53789;51.392;10.234;2023-07-13T00:51:31;98137.38;;;14.88;76.18
66880;BME280;53789;51.392;10.234;2023-07-13T00:52:00;98136.22;;;14.89;76.36
66880;BME280;53789;51.392;10.234;2023-07-13T00:52:21;98139.78;;;14.90;75.73
66880;BME280;53789;51.392;10.234;2023-07-13T00:52:46;98140.63;;;14.90;76.30
66880;BME280;53789;51.392;10.234;2023-07-13T00:53:08;98141.75;;;14.89;75.69
66880;BME280;53789;51.392;10.234;2023-07-13T00:53:31;98143.06;;;14.92;76.27
66880;BME280;53789;51.392;10.234;2023-07-13T00:53:55;98135.56;;;14.92;76.14
66880;BME280;53789;51.392;10.234;2023-07-13T00:54:22;98132.44;;;14.94;75.70
66880;BME280;53789;51.392;10.234;2023-07-13T00:54:46;98132.09;;;14.95;75.80
66880;BME280;53789;51.392;10.234;2023-07-13T00:55:09;98128.19;;;14.96;74.81
66880;BME280;53789;51.392;10.234;2023-07-13T00:55:31;98131.41;;;14.98;75.63
66880;BME280;53789;51.392;10.234;2023-07-13T00:55:54;98135.03;;;14.99;75.39
66880;BME280;53789;51.392;10.234;2023-07-13T00:56:15;98128.31;;;15.00;75.84
66880;BME280;53789;51.392;10.234;2023-07-13T00:56:39;98129.94;;;15.01;75.79
66880;BME280;53789;51.392;10.234;2023-07-13T00:57:04;98130.75;;;15.02;75.51
66880;BME280;53789;51.392;10.234;2023-07-13T00:57:26;98129.25;;;15.04;75.93
66880;BME280;53789;51.392;10.234;2023-07-13T00:57:46;98125.34;;;15.05;75.74
66880;BME280;53789;51.392;10.234;2023-07-13T00:58:07;98128.13;;;15.05;75.67
66880;BME280;53789;51.392;10.234;2023-07-13T00:58:28;98124.22;;;15.06;74.98
66880;BME280;53789;51.392;10.234;2023-07-13T00:58:49;98127.44;;;15.08;75.99
66880;BME280;53789;51.392;10.234;2023-07-13T00:59:12;98125.47;;;15.09;75.51
66880;BME280;53789;51.392;10.234;2023-07-13T00:59:36;98128.25;;;15.09;74.77
66880;BME280;53789;51.392;10.234;2023-07-13T00:59:59;98131.50;;;15.11;74.31
66880;BME280;53789;51.392;10.234;2023-07-13T01:00:22;98128.06;;;15.14;74.96
66880;BME280;53789;51.392;10.234;2023-07-13T01:00:43;98130.47;;;15.15;75.18
66880;BME280;53789;51.392;10.234;2023-07-13T01:01:04;98132.41;;;15.15;75.49
66880;BME280;53789;51.392;10.234;2023-07-13T01:01:24;98131.63;;;15.14;75.77
66880;BME280;53789;51.392;10.234;2023-07-13T01:01:45;98129.66;;;15.15;75.29
66880;BME280;53789;51.392;10.234;2023-07-13T01:02:08;98129.19;;;15.13;75.55
66880;BME280;53789;51.392;10.234;2023-07-13T01:02:29;98131.16;;;15.12;75.29
66880;BME280;53789;51.392;10.234;2023-07-13T01:02:49;98125.13;;;15.10;75.01
66880;BME280;53789;51.392;10.234;2023-07-13T01:03:10;98127.09;;;15.10;75.14
66880;BME280;53789;51.392;10.234;2023-07-13T01:03:30;98130.22;;;15.08;75.07
66880;BME280;53789;51.392;10.234;2023-07-13T01:03:50;98129.75;;;15.06;75.48
66880;BME280;53789;51.392;10.234;2023-07-13T01:04:11;98120.63;;;15.06;75.33
66880;BME280;53789;51.392;10.234;2023-07-13T01:04:31;98122.94;;;15.04;75.49
66880;BME280;53789;51.392;10.234;2023-07-13T01:04:51;98123.72;;;15.04;75.46
66880;BME280;53789;51.392;10.234;2023-07-13T01:05:20;98123.25;;;15.02;75.74
66880;BME280;53789;51.392;10.234;2023-07-13T01:05:41;98128.81;;;15.02;75.30
66880;BME280;53789;51.392;10.234;2023-07-13T01:06:01;98134.69;;;15.01;75.26
66880;BME280;53789;51.392;10.234;2023-07-13T01:06:22;98129.81;;;14.97;75.28
66880;BME280;53789;51.392;10.234;2023-07-13T01:06:44;98127.41;;;14.96;75.25
66880;BME280;53789;51.392;10.234;2023-07-13T01:07:06;98131.31;;;14.95;75.33
66880;BME280;53789;51.392;10.234;2023-07-13T01:07:27;98132.44;;;14.94;75.62
66880;BME280;53789;51.392;10.234;2023-07-13T01:07:50;98130.00;;;14.92;75.45
66880;BME280;53789;51.392;10.234;2023-07-13T01:08:11;98129.22;;;14.92;75.16
66880;BME280;53789;51.392;10.234;2023-07-13T01:08:31;98128.72;;;14.90;76.00
66880;BME280;53789;51.392;10.234;2023-07-13T01:08:51;98127.91;;;14.89;75.58
66880;BME280;53789;51.392;10.234;2023-07-13T01:09:13;98124.34;;;14.89;75.29
66880;BME280;53789;51.392;10.234;2023-07-13T01:09:34;98129.88;;;14.89;75.25
66880;BME280;53789;51.392;10.234;2023-07-13T01:09:54;98131.50;;;14.90;75.64
66880;BME280;53789;51.392;10.234;2023-07-13T01:10:15;98125.94;;;14.90;75.56
66880;BME280;53789;51.392;10.234;2023-07-13T01:10:35;98126.78;;;14.90;75.61
66880;BME280;53789;51.392;10.234;2023-07-13T01:10:57;98129.56;;;14.90;75.43
66880;BME280;53789;51.392;10.234;2023-07-13T01:11:21;98127.59;;;14.91;75.67
66880;BME280;53789;51.392;10.234;2023-07-13T01:11:42;98124.47;;;14.92;76.13
66880;BME280;53789;51.392;10.234;2023-07-13T01:12:02;98125.28;;;14.93;75.78
66880;BME280;53789;51.392;10.234;2023-07-13T01:12:23;98125.28;;;14.93;76.07
66880;BME280;53789;51.392;10.234;2023-07-13T01:12:43;98128.53;;;14.95;75.92
66880;BME280;53789;51.392;10.234;2023-07-13T01:13:06;98120.56;;;14.93;75.72
66880;BME280;53789;51.392;10.234;2023-07-13T01:13:26;98131.66;;;14.93;75.71
66880;BME280;53789;51.392;10.234;2023-07-13T01:13:47;98128.88;;;14.93;75.53
66880;BME280;53789;51.392;10.234;2023-07-13T01:14:08;98124.47;;;14.92;75.55
66880;BME280;53789;51.392;10.234;2023-07-13T01:14:29;98125.63;;;14.91;75.17
66880;BME280;53789;51.392;10.234;2023-07-13T01:14:57;98127.59;;;14.91;75.33
66880;BME280;53789;51.392;10.234;2023-07-13T01:15:37;98122.25;;;14.86;75.69
66880;BME280;53789;51.392;10.234;2023-07-13T01:16:04;98134.13;;;14.86;75.65
66880;BME280;53789;51.392;10.234;2023-07-13T01:16:32;98128.94;;;14.85;75.81
66880;BME280;53789;51.392;10.234;2023-07-13T01:16:54;98126.84;;;14.82;75.93
66880;BME280;53789;51.392;10.234;2023-07-13T01:17:15;98129.63;;;14.82;75.90
66880;BME280;53789;51.392;10.234;2023-07-13T01:17:36;98128.00;;;14.80;75.76
66880;BME280;53789;51.392;10.234;2023-07-13T01:17:56;98132.72;;;14.80;75.93
66880;BME280;53789;51.392;10.234;2023-07-13T01:18:23;98126.69;;;14.78;75.92
66880;BME280;53789;51.392;10.234;2023-07-13T01:18:43;98128.97;;;14.76;76.37
66880;BME280;53789;51.392;10.234;2023-07-13T01:19:44;98135.19;;;14.73;76.51
66880;BME280;53789;51.392;10.234;2023-07-13T01:20:05;98126.41;;;14.71;76.05
66880;BME280;53789;51.392;10.234;2023-07-13T01:20:26;98127.56;;;14.70;75.92
66880;BME280;53789;51.392;10.234;2023-07-13T01:21:02;98127.91;;;14.68;76.65
66880;BME280;53789;51.392;10.234;2023-07-13T01:21:24;98127.91;;;14.68;76.13
66880;BME280;53789;51.392;10.234;2023-07-13T01:21:50;98125.47;;;14.67;76.06
66880;BME280;53789;51.392;10.234;2023-07-13T01:22:14;98130.66;;;14.68;76.34
66880;BME280;53789;51.392;10.234;2023-07-13T01:22:34;98129.81;;;14.68;76.00
66880;BME280;53789;51.392;10.234;2023-07-13T01:22:55;98125.47;;;14.67;76.19
66880;BME280;53789;51.392;10.234;2023-07-13T01:23:15;98129.81;;;14.68;76.00
66880;BME280;53789;51.392;10.234;2023-07-13T01:23:35;98124.63;;;14.66;75.76
66880;BME280;53789;51.392;10.234;2023-07-13T01:23:55;98124.97;;;14.64;76.01
66880;BME280;53789;51.392;10.234;2023-07-13T01:24:16;98130.50;;;14.64;76.38
66880;BME280;53789;51.392;10.234;2023-07-13T01:24:37;98128.41;;;14.61;76.50
66880;BME280;53789;51.392;10.234;2023-07-13T01:24:57;98127.94;;;14.59;76.41
66880;BME280;53789;51.392;10.234;2023-07-13T01:25:20;98121.94;;;14.57;76.44
66880;BME280;53789;51.392;10.234;2023-07-13T01:25:40;98129.75;;;14.55;76.70
66880;BME280;53789;51.392;10.234;2023-07-13T01:26:00;98123.75;;;14.53;76.38
66880;BME280;53789;51.392;10.234;2023-07-13T01:26:21;98123.28;;;14.51;76.21
66880;BME280;53789;51.392;10.234;2023-07-13T01:26:41;98123.59;;;14.50;76.53
66880;BME280;53789;51.392;10.234;2023-07-13T01:27:02;98127.88;;;14.47;76.71
66880;BME280;53789;51.392;10.234;2023-07-13T01:27:25;98120.22;;;14.44;76.72
66880;BME280;53789;51.392;10.234;2023-07-13T01:27:46;98119.75;;;14.42;76.85
66880;BME280;53789;51.392;10.234;2023-07-13T01:28:08;98128.72;;;14.39;77.14
66880;BME280;53789;51.392;10.234;2023-07-13T01:28:29;98127.94;;;14.38;77.08
66880;BME280;53789;51.392;10.234;2023-07-13T01:28:49;98120.28;;;14.35;77.10
66880;BME280;53789;51.392;10.234;2023-07-13T01:29:10;98121.44;;;14.34;77.51
66880;BME280;53789;51.392;10.234;2023-07-13T01:29:32;98124.53;;;14.33;77.60
66880;BME280;53789;51.392;10.234;2023-07-13T01:29:53;98122.91;;;14.32;77.48
66880;BME280;53789;51.392;10.234;2023-07-13T01:30:13;98118.84;;;14.29;77.24
66880;BME280;53789;51.392;10.234;2023-07-13T01:30:35;98119.66;;;14.30;77.32
66880;BME280;53789;51.392;10.234;2023-07-13T01:30:58;98122.78;;;14.28;77.11
66880;BME280;53789;51.392;10.234;2023-07-13T01:31:18;98117.56;;;14.26;78.16
66880;BME280;53789;51.392;10.234;2023-07-13T01:31:39;98121.47;;;14.25;77.59
66880;BME280;53789;51.392;10.234;2023-07-13T01:31:59;98116.75;;;14.26;78.27
66880;BME280;53789;51.392;10.234;2023-07-13T01:32:23;98118.38;;;14.27;77.63
66880;BME280;53789;51.392;10.234;2023-07-13T01:32:44;98123.09;;;14.26;78.65
66880;BME280;53789;51.392;10.234;2023-07-13T01:33:04;98119.19;;;14.27;77.96
66880;BME280;53789;51.392;10.234;2023-07-13T01:33:25;98120.81;;;14.28;78.42
66880;BME280;53789;51.392;10.234;2023-07-13T01:33:45;98120.34;;;14.26;77.34
66880;BME280;53789;51.392;10.234;2023-07-13T01:34:06;98120.00;;;14.28;77.81
66880;BME280;53789;51.392;10.234;2023-07-13T01:34:27;98120.34;;;14.26;78.45
66880;BME280;53789;51.392;10.234;2023-07-13T01:34:47;98122.28;;;14.26;77.97
66880;BME280;53789;51.392;10.234;2023-07-13T01:35:07;98123.56;;;14.28;78.05
66880;BME280;53789;51.392;10.234;2023-07-13T01:35:28;98118.84;;;14.29;77.96
66880;BME280;53789;51.392;10.234;2023-07-13T01:35:48;98124.03;;;14.31;78.21
66880;BME280;53789;51.392;10.234;2023-07-13T01:36:10;98114.94;;;14.30;78.36
66880;BME280;53789;51.392;10.234;2023-07-13T01:36:30;98128.44;;;14.32;77.67
66880;BME280;53789;51.392;10.234;2023-07-13T01:36:51;98122.56;;;14.33;78.32
66880;BME280;53789;51.392;10.234;2023-07-13T01:37:12;98125.34;;;14.33;77.78
66880;BME280;53789;51.392;10.234;2023-07-13T01:37:33;98123.06;;;14.35;78.02
66880;BME280;53789;51.392;10.234;2023-07-13T01:37:53;98127.44;;;14.36;77.78
66880;BME280;53789;51.392;10.234;2023-07-13T01:38:16;98127.09;;;14.38;77.72
66880;BME280;53789;51.392;10.234;2023-07-13T01:38:36;98128.72;;;14.39;77.28
66880;BME280;53789;51.392;10.234;2023-07-13T01:38:57;98130.34;;;14.40;76.89
66880;BME280;53789;51.392;10.234;2023-07-13T01:39:17;98128.38;;;14.40;77.15
66880;BME280;53789;51.392;10.234;2023-07-13T01:39:38;98130.03;;;14.41;76.37
66880;BME280;53789;51.392;10.234;2023-07-13T01:39:59;98123.31;;;14.42;77.28
66880;BME280;53789;51.392;10.234;2023-07-13T01:40:20;98117.78;;;14.42;77.50
66880;BME280;53789;51.392;10.234;2023-07-13T01:40:41;98120.22;;;14.44;77.46
66880;BME280;53789;51.392;10.234;2023-07-13T01:41:02;98128.53;;;14.44;77.21
66880;BME280;53789;51.392;10.234;2023-07-13T01:41:23;98131.63;;;14.42;77.75
66880;BME280;53789;51.392;10.234;2023-07-13T01:41:43;98121.84;;;14.45;77.47
66880;BME280;53789;51.392;10.234;2023-07-13T01:42:03;98125.44;;;14.45;77.28
66880;BME280;53789;51.392;10.234;2023-07-13T01:42:24;98125.91;;;14.48;77.46
66880;BME280;53789;51.392;10.234;2023-07-13T01:42:44;98126.72;;;14.48;77.24
66880;BME280;53789;51.392;10.234;2023-07-13T01:43:04;98125.56;;;14.49;76.73
66880;BME280;53789;51.392;10.234;2023-07-13T01:43:25;98127.19;;;14.50;76.92
66880;BME280;53789;51.392;10.234;2023-07-13T01:43:45;98129.13;;;14.50;77.12
66880;BME280;53789;51.392;10.234;2023-07-13T01:44:06;98128.81;;;14.51;77.31
66880;BME280;53789;51.392;10.234;2023-07-13T01:44:26;98124.09;;;14.52;77.01
66880;BME280;53789;51.392;10.234;2023-07-13T01:44:46;98127.66;;;14.52;76.89
66880;BME280;53789;51.392;10.234;2023-07-13T01:45:07;98132.06;;;14.53;76.63
66880;BME280;53789;51.392;10.234;2023-07-13T01:45:27;98127.31;;;14.54;76.45
66880;BME280;53789;51.392;10.234;2023-07-13T01:45:47;98130.09;;;14.54;76.64
66880;BME280;53789;51.392;10.234;2023-07-13T01:46:08;98136.44;;;14.54;76.82
66880;BME280;53789;51.392;10.234;2023-07-13T01:46:28;98128.13;;;14.54;77.02
66880;BME280;53789;51.392;10.234;2023-07-13T01:46:48;98127.78;;;14.56;76.71
66880;BME280;53789;51.392;10.234;2023-07-13T01:47:10;98133.31;;;14.56;76.19
66880;BME280;53789;51.392;10.234;2023-07-13T01:47:31;98132.19;;;14.57;76.58
66880;BME280;53789;51.392;10.234;2023-07-13T01:47:51;98131.84;;;14.58;75.81
66880;BME280;53789;51.392;10.234;2023-07-13T01:48:12;98131.06;;;14.58;76.05
66880;BME280;53789;51.392;10.234;2023-07-13T01:48:33;98122.75;;;14.58;76.74
66880;BME280;53789;51.392;10.234;2023-07-13T01:48:53;98124.38;;;14.59;76.50
66880;BME280;53789;51.392;10.234;2023-07-13T01:49:13;98123.56;;;14.58;76.19
66880;BME280;53789;51.392;10.234;2023-07-13T01:49:33;98124.72;;;14.57;76.43
66880;BME280;53789;51.392;10.234;2023-07-13T01:49:54;98127.16;;;14.59;75.59
66880;BME280;53789;51.392;10.234;2023-07-13T01:50:14;98125.97;;;14.60;75.87
66880;BME280;53789;51.392;10.234;2023-07-13T01:50:35;98119.31;;;14.61;76.25
66880;BME280;53789;51.392;10.234;2023-07-13T01:50:55;98116.88;;;14.59;76.51
66880;BME280;53789;51.392;10.234;2023-07-13T01:51:16;98121.28;;;14.60;75.95
66880;BME280;53789;51.392;10.234;2023-07-13T01:51:37;98120.94;;;14.62;75.81
66880;BME280;53789;51.392;10.234;2023-07-13T01:51:57;98118.63;;;14.64;75.86
66880;BME280;53789;51.392;10.234;2023-07-13T01:52:17;98124.97;;;14.64;75.45
66880;BME280;53789;51.392;10.234;2023-07-13T01:52:38;98126.94;;;14.64;75.58
66880;BME280;53789;51.392;10.234;2023-07-13T01:52:58;98125.81;;;14.65;75.51
66880;BME280;53789;51.392;10.234;2023-07-13T01:53:18;98123.84;;;14.66;75.85